createdAt,value
2023-04-16T00:06:13.552Z,13.24
2023-04-16T00:21:06.744Z,13.67
2023-04-16T00:35:57.011Z,14.50
2023-04-16T00:50:48.682Z,15.27
2023-04-16T01:05:41.299Z,14.58
2023-04-16T02:05:09.743Z,14.94
2023-04-16T02:20:01.838Z,14.47
2023-04-16T02:49:46.068Z,16.06
2023-04-16T03:04:39.069Z,16.21
2023-04-16T03:19:31.506Z,15.91
2023-04-16T03:34:23.200Z,15.31
2023-04-16T03:49:15.743Z,15.54
2023-04-16T04:04:09.240Z,14.17
2023-04-16T04:19:00.822Z,15.96
2023-04-16T04:33:53.166Z,9.40
2023-04-16T04:48:44.864Z,10.17
2023-04-16T05:03:36.747Z,10.69
2023-04-16T05:18:28.818Z,9.89
2023-04-16T05:33:20.015Z,9.38
2023-04-16T05:48:11.864Z,9.18
2023-04-16T06:03:04.059Z,10.33
2023-04-16T06:17:55.074Z,9.46
2023-04-16T06:32:46.923Z,8.41
2023-04-16T06:47:37.394Z,9.02
2023-04-16T07:02:28.849Z,8.12
2023-04-16T07:17:21.206Z,7.70
2023-04-16T07:32:15.290Z,7.94
2023-04-16T07:47:05.773Z,7.50
2023-04-16T08:01:56.412Z,7.30
2023-04-16T08:16:48.161Z,6.41
2023-04-16T08:31:40.662Z,6.50
2023-04-16T08:46:33.286Z,6.23
2023-04-16T09:01:26.778Z,6.27
2023-04-16T09:16:18.645Z,6.24
2023-04-16T09:31:15.723Z,6.29
2023-04-16T09:46:10.693Z,6.52
2023-04-16T10:01:02.185Z,6.52
2023-04-16T10:30:43.821Z,6.10
2023-04-16T12:14:51.337Z,6.94
2023-04-16T13:44:04.052Z,6.26
2023-04-16T13:58:55.789Z,5.96
2023-04-16T14:13:47.990Z,5.67
2023-04-16T14:28:39.703Z,6.00
2023-04-16T14:43:30.203Z,7.14
2023-04-16T14:58:21.554Z,8.29
2023-04-16T15:13:12.630Z,8.50
2023-04-16T15:28:03.511Z,9.23
2023-04-16T15:42:55.190Z,10.77
2023-04-16T15:57:47.433Z,12.60
2023-04-16T16:12:39.463Z,14.70
2023-04-16T16:27:32.014Z,16.53
2023-04-16T16:42:23.482Z,17.70
2023-04-16T16:57:15.605Z,18.70
2023-04-16T17:12:08.490Z,19.13
2023-04-16T17:26:59.858Z,19.02
2023-04-16T17:41:51.820Z,20.06
2023-04-16T17:56:43.507Z,18.93
2023-04-16T18:11:35.232Z,18.23
2023-04-16T18:26:29.807Z,16.88
2023-04-16T18:41:21.312Z,18.71
2023-04-16T18:56:16.317Z,19.40
2023-04-16T19:11:08.638Z,20.00
2023-04-16T19:26:00.968Z,20.21
2023-04-16T19:40:52.756Z,19.82
2023-04-16T19:55:43.993Z,21.31
2023-04-16T20:10:36.138Z,18.89
2023-04-16T20:25:28.652Z,21.37
2023-04-16T20:40:20.622Z,22.07
2023-04-16T20:55:12.672Z,23.78
2023-04-16T21:10:05.302Z,23.34
2023-04-16T21:24:58.254Z,22.61
2023-04-16T21:54:41.043Z,23.31
2023-04-16T23:09:02.945Z,23.84
2023-04-16T23:23:54.305Z,24.59
2023-04-16T23:38:45.969Z,23.36
2023-04-16T23:53:37.861Z,21.50
